createdAt,value
2023-04-02T00:01:01.006Z,100.00
2023-04-02T00:04:02.966Z,100.00
2023-04-02T00:06:33.480Z,100.00
2023-04-02T00:09:13.214Z,100.00
2023-04-02T00:11:54.317Z,100.00
2023-04-02T00:14:30.874Z,100.00
2023-04-02T00:16:59.445Z,100.00
2023-04-02T00:19:36.790Z,100.00
2023-04-02T00:22:05.879Z,100.00
2023-04-02T00:24:33.174Z,100.00
2023-04-02T00:27:00.734Z,100.00
2023-04-02T00:29:28.337Z,100.00
2023-04-02T00:31:56.867Z,100.00
2023-04-02T00:34:32.058Z,100.00
2023-04-02T00:36:59.574Z,100.00
2023-04-02T00:39:34.610Z,100.00
2023-04-02T00:42:05.344Z,100.00
2023-04-02T00:44:37.370Z,100.00
2023-04-02T00:47:16.742Z,100.00
2023-04-02T00:50:32.837Z,100.00
2023-04-02T00:53:00.444Z,100.00
2023-04-02T00:55:35.339Z,100.00
2023-04-02T00:58:04.015Z,100.00
2023-04-02T01:00:35.257Z,100.00
2023-04-02T01:03:17.250Z,100.00
2023-04-02T01:05:50.150Z,100.00
2023-04-02T01:08:37.298Z,100.00
2023-04-02T01:11:26.730Z,100.00
2023-04-02T01:14:26.654Z,100.00
2023-04-02T01:17:18.061Z,100.00
2023-04-02T01:19:58.014Z,100.00
2023-04-02T01:22:34.695Z,100.00
2023-04-02T01:25:04.200Z,100.00
2023-04-02T01:27:40.405Z,100.00
2023-04-02T01:30:08.630Z,100.00
2023-04-02T01:32:37.015Z,100.00
2023-04-02T01:35:05.581Z,100.00
2023-04-02T01:37:44.613Z,100.00
2023-04-02T01:40:18.413Z,100.00
2023-04-02T01:42:49.893Z,100.00
2023-04-02T01:45:19.688Z,100.00
2023-04-02T01:47:48.203Z,100.00
2023-04-02T01:50:19.738Z,100.00
2023-04-02T01:52:52.219Z,100.00
2023-04-02T01:55:46.504Z,100.00
2023-04-02T01:58:17.395Z,100.00
2023-04-02T02:00:57.480Z,100.00
2023-04-02T02:03:26.041Z,100.00
2023-04-02T02:05:53.702Z,100.00
2023-04-02T02:08:52.394Z,100.00
2023-04-02T02:11:22.622Z,100.00
2023-04-02T02:13:52.642Z,100.00
2023-04-02T02:16:21.665Z,100.00
2023-04-02T02:18:54.559Z,100.00
2023-04-02T02:21:28.512Z,100.00
2023-04-02T02:23:56.377Z,100.00
2023-04-02T02:26:23.842Z,100.00
2023-04-02T02:28:53.274Z,100.00
2023-04-02T02:31:27.507Z,100.00
2023-04-02T02:34:07.003Z,100.00
2023-04-02T02:36:39.718Z,100.00
2023-04-02T02:39:17.688Z,100.00
2023-04-02T02:41:55.898Z,100.00
2023-04-02T02:44:25.303Z,100.00
2023-04-02T02:47:06.576Z,100.00
2023-04-02T02:49:39.378Z,100.00
2023-04-02T02:52:36.843Z,100.00
2023-04-02T02:55:12.935Z,100.00
2023-04-02T02:58:11.363Z,100.00
2023-04-02T03:00:45.774Z,100.00
2023-04-02T03:03:19.277Z,100.00
2023-04-02T03:05:52.587Z,100.00
2023-04-02T03:08:30.396Z,100.00
2023-04-02T03:11:04.475Z,100.00
2023-04-02T03:13:35.813Z,100.00
2023-04-02T03:16:10.921Z,100.00
2023-04-02T03:18:41.501Z,100.00
2023-04-02T03:21:30.590Z,100.00
2023-04-02T03:24:04.667Z,100.00
2023-04-02T03:26:49.235Z,100.00
2023-04-02T03:29:24.177Z,100.00
2023-04-02T03:32:00.012Z,100.00
2023-04-02T03:34:32.590Z,100.00
2023-04-02T03:37:12.744Z,100.00
2023-04-02T03:39:51.023Z,100.00
2023-04-02T03:42:44.726Z,100.00
2023-04-02T03:45:21.631Z,100.00
2023-04-02T03:47:58.546Z,100.00
2023-04-02T03:50:40.481Z,100.00
2023-04-02T03:53:08.032Z,100.00
2023-04-02T03:55:38.520Z,100.00
2023-04-02T03:58:38.280Z,100.00
2023-04-02T04:01:11.739Z,100.00
2023-04-02T04:03:51.044Z,100.00
2023-04-02T04:06:29.162Z,100.00
2023-04-02T04:09:00.462Z,100.00
2023-04-02T04:11:31.230Z,100.00
2023-04-02T04:14:00.906Z,100.00
2023-04-02T04:16:41.087Z,100.00
2023-04-02T04:19:49.105Z,100.00
2023-04-02T04:22:29.947Z,100.00
2023-04-02T04:25:03.062Z,100.00
2023-04-02T04:27:45.020Z,100.00
2023-04-02T04:30:17.811Z,100.00
2023-04-02T04:32:57.590Z,100.00
2023-04-02T04:35:39.664Z,100.00
2023-04-02T04:38:43.967Z,100.00
2023-04-02T04:41:18.700Z,100.00
2023-04-02T04:43:54.294Z,100.00
2023-04-02T04:46:52.233Z,100.00
2023-04-02T04:49:30.728Z,100.00
2023-04-02T04:52:16.221Z,100.00
2023-04-02T04:54:45.307Z,100.00
2023-04-02T04:57:25.784Z,100.00
2023-04-02T05:00:16.875Z,100.00
2023-04-02T05:02:48.095Z,100.00
2023-04-02T05:05:24.281Z,100.00
2023-04-02T05:07:59.787Z,100.00
2023-04-02T05:10:37.322Z,100.00
2023-04-02T05:13:07.591Z,100.00
2023-04-02T05:15:41.676Z,100.00
2023-04-02T05:18:26.320Z,100.00
2023-04-02T05:20:56.321Z,100.00
2023-04-02T05:24:04.848Z,100.00
2023-04-02T05:26:38.765Z,100.00
2023-04-02T05:29:08.989Z,100.00
2023-04-02T05:31:58.672Z,100.00
2023-04-02T05:34:29.170Z,100.00
2023-04-02T05:36:58.167Z,100.00
2023-04-02T05:39:26.180Z,100.00
2023-04-02T05:42:03.857Z,100.00
2023-04-02T05:45:08.578Z,100.00
2023-04-02T05:47:40.479Z,100.00
2023-04-02T05:50:30.426Z,100.00
2023-04-02T05:53:08.542Z,100.00
2023-04-02T05:55:49.104Z,100.00
2023-04-02T05:58:35.974Z,100.00
2023-04-02T06:01:38.647Z,100.00
2023-04-02T06:04:26.721Z,100.00
2023-04-02T06:07:01.384Z,100.00
2023-04-02T06:09:34.507Z,100.00
2023-04-02T06:12:31.827Z,100.00
2023-04-02T06:15:01.089Z,100.00
2023-04-02T06:17:33.503Z,100.00
2023-04-02T06:20:00.815Z,100.00
2023-04-02T06:22:37.911Z,100.00
2023-04-02T06:25:26.756Z,100.00
2023-04-02T06:27:56.470Z,100.00
2023-04-02T06:30:27.768Z,100.00
2023-04-02T06:32:56.982Z,100.00
2023-04-02T06:35:25.394Z,100.00
2023-04-02T06:38:01.067Z,100.00
2023-04-02T06:40:42.431Z,100.00
2023-04-02T06:43:49.163Z,100.00
2023-04-02T06:46:28.418Z,100.00
2023-04-02T06:49:05.109Z,100.00
2023-04-02T06:51:33.395Z,100.00
2023-04-02T06:54:04.020Z,100.00
2023-04-02T06:56:42.635Z,100.00
2023-04-02T06:59:12.471Z,100.00
2023-04-02T07:01:48.860Z,100.00
2023-04-02T07:04:18.485Z,100.00
2023-04-02T07:06:47.001Z,100.00
2023-04-02T07:09:15.988Z,100.00
2023-04-02T07:11:47.039Z,100.00
2023-04-02T07:14:15.883Z,100.00
2023-04-02T07:16:45.091Z,100.00
2023-04-02T07:19:20.865Z,100.00
2023-04-02T07:21:51.702Z,100.00
2023-04-02T07:24:20.693Z,100.00
2023-04-02T07:26:48.393Z,100.00
2023-04-02T07:29:16.429Z,100.00
2023-04-02T07:31:44.223Z,100.00
2023-04-02T07:34:11.684Z,100.00
2023-04-02T07:36:39.183Z,100.00
2023-04-02T07:39:06.554Z,100.00
2023-04-02T07:41:34.325Z,100.00
2023-04-02T07:44:03.129Z,100.00
2023-04-02T07:46:30.415Z,100.00
2023-04-02T07:48:57.952Z,100.00
2023-04-02T07:51:26.258Z,100.00
2023-04-02T07:53:56.838Z,100.00
2023-04-02T07:56:24.596Z,100.00
2023-04-02T07:58:52.054Z,100.00
2023-04-02T08:01:23.831Z,100.00
2023-04-02T08:03:54.466Z,100.00
2023-04-02T08:06:23.060Z,100.00
2023-04-02T08:08:51.604Z,100.00
2023-04-02T08:11:19.075Z,100.00
2023-04-02T08:13:47.541Z,100.00
2023-04-02T08:16:15.199Z,100.00
2023-04-02T08:18:43.004Z,99.07
2023-04-02T08:21:10.749Z,97.33
2023-04-02T08:23:38.507Z,97.05
2023-04-02T08:26:08.721Z,96.25
2023-04-02T08:28:39.244Z,96.06
2023-04-02T08:31:08.695Z,96.18
2023-04-02T08:33:37.027Z,94.87
2023-04-02T08:36:04.705Z,94.50
2023-04-02T08:38:32.351Z,94.67
2023-04-02T08:41:00.139Z,94.85
2023-04-02T08:44:01.559Z,96.01
2023-04-02T08:46:48.070Z,97.04
2023-04-02T08:49:18.347Z,96.73
2023-04-02T08:51:46.367Z,95.89
2023-04-02T08:54:19.862Z,96.10
2023-04-02T08:57:07.657Z,97.39
2023-04-02T08:59:40.101Z,97.64
2023-04-02T09:02:23.854Z,97.24
2023-04-02T09:04:51.482Z,98.38
2023-04-02T09:07:18.818Z,99.39
2023-04-02T09:09:48.226Z,100.00
2023-04-02T09:12:31.446Z,100.00
2023-04-02T09:15:24.210Z,100.00
2023-04-02T09:18:20.827Z,100.00
2023-04-02T09:20:49.754Z,100.00
2023-04-02T09:23:22.825Z,100.00
2023-04-02T09:26:03.654Z,100.00
2023-04-02T09:28:32.379Z,98.97
2023-04-02T09:31:08.851Z,96.51
2023-04-02T09:33:55.172Z,95.19
2023-04-02T09:36:40.825Z,93.93
2023-04-02T09:39:19.851Z,93.25
2023-04-02T09:41:55.788Z,93.20
2023-04-02T09:44:32.324Z,93.73
2023-04-02T09:47:05.667Z,95.18
2023-04-02T09:49:34.953Z,95.32
2023-04-02T09:52:10.837Z,95.87
2023-04-02T09:54:41.250Z,96.74
2023-04-02T09:57:23.360Z,97.47
2023-04-02T10:00:32.426Z,97.97
2023-04-02T10:03:32.522Z,97.73
2023-04-02T10:06:07.811Z,98.22
2023-04-02T10:08:35.918Z,99.62
2023-04-02T10:11:07.419Z,100.00
2023-04-02T10:13:47.106Z,100.00
2023-04-02T10:16:19.026Z,100.00
2023-04-02T10:18:49.303Z,100.00
2023-04-02T10:21:19.071Z,100.00
2023-04-02T10:23:46.586Z,100.00
2023-04-02T10:26:30.358Z,100.00
2023-04-02T10:29:14.241Z,100.00
2023-04-02T10:31:54.039Z,100.00
2023-04-02T10:34:24.416Z,100.00
2023-04-02T10:36:54.369Z,100.00
2023-04-02T10:39:43.338Z,100.00
2023-04-02T10:42:19.863Z,100.00
2023-04-02T10:45:14.251Z,100.00
2023-04-02T10:48:02.723Z,100.00
2023-04-02T10:50:39.474Z,100.00
2023-04-02T10:53:15.841Z,100.00
2023-04-02T10:55:48.208Z,100.00
2023-04-02T10:58:25.606Z,100.00
2023-04-02T11:01:03.429Z,100.00
2023-04-02T11:03:36.458Z,100.00
2023-04-02T11:06:12.080Z,100.00
2023-04-02T11:08:47.691Z,100.00
2023-04-02T11:11:16.036Z,100.00
2023-04-02T11:13:55.337Z,100.00
2023-04-02T11:16:23.190Z,99.68
2023-04-02T11:19:12.321Z,98.47
2023-04-02T11:22:00.477Z,97.30
2023-04-02T11:24:31.131Z,95.41
2023-04-02T11:27:16.136Z,94.72
2023-04-02T11:29:56.834Z,93.61
2023-04-02T11:32:33.948Z,94.16
2023-04-02T11:35:31.762Z,94.44
2023-04-02T11:38:11.840Z,94.57
2023-04-02T11:40:42.399Z,95.68
2023-04-02T11:43:32.142Z,96.37
2023-04-02T11:46:17.427Z,96.63
2023-04-02T11:48:45.296Z,95.41
2023-04-02T11:51:22.882Z,92.64
2023-04-02T11:53:57.948Z,89.82
2023-04-02T11:56:43.289Z,88.23
2023-04-02T11:59:13.510Z,87.75
2023-04-02T12:01:54.205Z,88.00
2023-04-02T12:04:43.052Z,88.00
2023-04-02T12:07:51.654Z,88.89
2023-04-02T12:10:32.013Z,91.23
2023-04-02T12:13:00.695Z,93.96
2023-04-02T12:15:53.343Z,96.61
2023-04-02T12:18:23.800Z,99.81
2023-04-02T12:20:53.101Z,100.00
2023-04-02T12:23:23.435Z,100.00
2023-04-02T12:25:57.920Z,100.00
2023-04-02T12:28:28.447Z,100.00
2023-04-02T12:31:08.867Z,100.00
2023-04-02T12:33:37.704Z,100.00
2023-04-02T12:36:09.415Z,100.00
2023-04-02T12:38:45.411Z,100.00
2023-04-02T12:41:31.526Z,100.00
2023-04-02T12:44:00.797Z,100.00
2023-04-02T12:46:29.444Z,100.00
2023-04-02T12:49:18.444Z,100.00
2023-04-02T12:51:45.729Z,100.00
2023-04-02T12:54:17.051Z,100.00
2023-04-02T12:56:44.714Z,100.00
2023-04-02T12:59:38.680Z,100.00
2023-04-02T13:02:21.201Z,100.00
2023-04-02T13:04:56.988Z,100.00
2023-04-02T13:07:25.470Z,100.00
2023-04-02T13:09:57.832Z,100.00
2023-04-02T13:12:39.394Z,100.00
2023-04-02T13:15:22.621Z,100.00
2023-04-02T13:18:18.432Z,100.00
2023-04-02T13:21:02.684Z,100.00
2023-04-02T13:23:30.455Z,100.00
2023-04-02T13:26:24.238Z,100.00
2023-04-02T13:29:25.505Z,100.00
2023-04-02T13:31:55.492Z,100.00
2023-04-02T13:34:22.842Z,100.00
2023-04-02T13:36:55.109Z,100.00
2023-04-02T13:39:22.701Z,100.00
2023-04-02T13:41:57.805Z,100.00
2023-04-02T13:44:30.188Z,100.00
2023-04-02T13:46:57.946Z,100.00
2023-04-02T13:49:26.967Z,100.00
2023-04-02T13:52:00.165Z,100.00
2023-04-02T13:54:43.969Z,100.00
2023-04-02T13:57:11.872Z,100.00
2023-04-02T13:59:39.541Z,100.00
2023-04-02T14:02:17.332Z,100.00
2023-04-02T14:04:50.908Z,100.00
2023-04-02T14:07:37.228Z,100.00
2023-04-02T14:10:17.347Z,100.00
2023-04-02T14:13:11.744Z,100.00
2023-04-02T14:15:59.270Z,100.00
2023-04-02T14:18:40.801Z,100.00
2023-04-02T14:21:08.408Z,100.00
2023-04-02T14:23:45.596Z,100.00
2023-04-02T14:26:22.204Z,100.00
2023-04-02T14:29:07.046Z,100.00
2023-04-02T14:31:38.480Z,100.00
2023-04-02T14:34:31.529Z,100.00
2023-04-02T14:37:20.429Z,100.00
2023-04-02T14:40:21.438Z,100.00
2023-04-02T14:43:11.723Z,100.00
2023-04-02T14:45:58.294Z,100.00
2023-04-02T14:48:50.772Z,100.00
2023-04-02T14:51:24.001Z,100.00
2023-04-02T14:54:33.923Z,100.00
2023-04-02T14:57:21.041Z,100.00
2023-04-02T15:00:30.578Z,100.00
2023-04-02T15:03:21.539Z,100.00
2023-04-02T15:05:53.988Z,100.00
2023-04-02T15:08:26.894Z,100.00
2023-04-02T15:11:15.191Z,100.00
2023-04-02T15:13:46.296Z,100.00
2023-04-02T15:16:13.956Z,100.00
2023-04-02T15:18:43.096Z,100.00
2023-04-02T15:21:16.890Z,100.00
2023-04-02T15:23:50.235Z,100.00
2023-04-02T15:26:26.712Z,100.00
2023-04-02T15:29:25.844Z,100.00
2023-04-02T15:32:05.155Z,100.00
2023-04-02T15:34:40.886Z,100.00
2023-04-02T15:37:45.921Z,100.00
2023-04-02T15:40:29.317Z,100.00
2023-04-02T15:43:16.045Z,100.00
2023-04-02T15:46:04.994Z,100.00
2023-04-02T15:49:09.846Z,100.00
2023-04-02T15:51:43.514Z,100.00
2023-04-02T15:54:45.372Z,100.00
2023-04-02T15:57:33.841Z,100.00
2023-04-02T16:00:30.004Z,100.00
2023-04-02T16:03:55.187Z,100.00
2023-04-02T16:06:27.540Z,100.00
2023-04-02T16:09:23.055Z,100.00
2023-04-02T16:11:55.760Z,100.00
2023-04-02T16:14:30.147Z,100.00
2023-04-02T16:17:14.229Z,100.00
2023-04-02T16:20:00.527Z,100.00
2023-04-02T16:22:32.661Z,100.00
2023-04-02T16:25:27.968Z,100.00
2023-04-02T16:28:03.619Z,100.00
2023-04-02T16:30:34.555Z,100.00
2023-04-02T16:33:21.680Z,100.00
2023-04-02T16:36:08.549Z,100.00
2023-04-02T16:38:41.982Z,100.00
2023-04-02T16:41:15.693Z,100.00
2023-04-02T16:44:07.732Z,100.00
2023-04-02T16:47:23.377Z,100.00
2023-04-02T16:50:02.848Z,100.00
2023-04-02T16:52:38.384Z,100.00
2023-04-02T16:55:23.623Z,100.00
2023-04-02T16:58:26.400Z,100.00
2023-04-02T17:00:59.420Z,100.00
2023-04-02T17:03:27.870Z,100.00
2023-04-02T17:06:23.962Z,100.00
2023-04-02T17:09:15.967Z,100.00
2023-04-02T17:11:53.460Z,100.00
2023-04-02T17:14:24.808Z,100.00
2023-04-02T17:16:54.413Z,100.00
2023-04-02T17:19:24.360Z,100.00
2023-04-02T17:21:52.913Z,100.00
2023-04-02T17:24:35.732Z,100.00
2023-04-02T17:27:06.707Z,100.00
2023-04-02T17:29:54.333Z,100.00
2023-04-02T17:32:24.206Z,100.00
2023-04-02T17:34:51.884Z,100.00
2023-04-02T17:37:29.365Z,100.00
2023-04-02T17:40:29.691Z,100.00
2023-04-02T17:43:04.045Z,100.00
2023-04-02T17:45:54.570Z,100.00
2023-04-02T17:48:54.816Z,100.00
2023-04-02T17:51:33.896Z,100.00
2023-04-02T17:54:25.076Z,100.00
2023-04-02T17:57:04.319Z,100.00
2023-04-02T17:59:53.171Z,100.00
2023-04-02T18:02:24.185Z,100.00
2023-04-02T18:05:16.750Z,100.00
2023-04-02T18:08:06.679Z,100.00
2023-04-02T18:10:41.870Z,100.00
2023-04-02T18:13:19.803Z,100.00
2023-04-02T18:16:06.444Z,100.00
2023-04-02T18:18:55.848Z,100.00
2023-04-02T18:21:23.934Z,100.00
2023-04-02T18:24:20.580Z,100.00
2023-04-02T18:27:06.450Z,100.00
2023-04-02T18:29:48.836Z,100.00
2023-04-02T18:32:57.398Z,100.00
2023-04-02T18:35:31.479Z,100.00
2023-04-02T18:38:17.685Z,100.00
2023-04-02T18:41:01.440Z,100.00
2023-04-02T18:43:51.001Z,100.00
2023-04-02T18:46:47.359Z,100.00
2023-04-02T18:49:28.827Z,100.00
2023-04-02T18:51:59.834Z,100.00
2023-04-02T18:54:59.572Z,100.00
2023-04-02T18:57:33.239Z,100.00
2023-04-02T19:00:05.854Z,100.00
2023-04-02T19:03:01.278Z,100.00
2023-04-02T19:05:35.065Z,100.00
2023-04-02T19:08:25.265Z,100.00
2023-04-02T19:10:57.285Z,100.00
2023-04-02T19:13:26.248Z,100.00
2023-04-02T19:15:54.262Z,100.00
2023-04-02T19:19:00.962Z,100.00
2023-04-02T19:21:40.908Z,100.00
2023-04-02T19:24:38.691Z,100.00
2023-04-02T19:27:26.820Z,100.00
2023-04-02T19:30:14.955Z,100.00
2023-04-02T19:33:04.571Z,100.00
2023-04-02T19:35:36.404Z,100.00
2023-04-02T19:38:38.844Z,100.00
2023-04-02T19:41:27.749Z,100.00
2023-04-02T19:43:55.329Z,100.00
2023-04-02T19:46:24.028Z,100.00
2023-04-02T19:48:59.419Z,100.00
2023-04-02T19:51:26.976Z,100.00
2023-04-02T19:53:54.940Z,100.00
2023-04-02T19:56:23.887Z,100.00
2023-04-02T19:58:51.292Z,100.00
2023-04-02T20:01:18.892Z,100.00
2023-04-02T20:03:47.194Z,100.00
2023-04-02T20:06:21.033Z,100.00
2023-04-02T20:08:48.214Z,100.00
2023-04-02T20:11:15.879Z,100.00
2023-04-02T20:13:43.887Z,100.00
2023-04-02T20:16:13.890Z,100.00
2023-04-02T20:18:41.080Z,100.00
2023-04-02T20:21:09.054Z,100.00
2023-04-02T20:23:38.036Z,100.00
2023-04-02T20:26:06.042Z,100.00
2023-04-02T20:28:33.775Z,100.00
2023-04-02T20:31:13.264Z,100.00
2023-04-02T20:33:40.857Z,100.00
2023-04-02T20:36:14.478Z,100.00
2023-04-02T20:38:42.768Z,100.00
2023-04-02T20:41:10.453Z,100.00
2023-04-02T20:43:42.374Z,100.00
2023-04-02T20:46:11.699Z,100.00
2023-04-02T20:48:40.166Z,100.00
2023-04-02T20:51:09.697Z,100.00
2023-04-02T20:53:37.660Z,100.00
2023-04-02T20:56:15.329Z,100.00
2023-04-02T20:58:45.683Z,100.00
2023-04-02T21:01:24.527Z,100.00
2023-04-02T21:03:55.413Z,100.00
2023-04-02T21:06:23.634Z,100.00
2023-04-02T21:08:51.565Z,100.00
2023-04-02T21:11:21.508Z,100.00
2023-04-02T21:13:49.024Z,100.00
2023-04-02T21:16:18.707Z,100.00
2023-04-02T21:18:51.213Z,100.00
2023-04-02T21:21:19.191Z,100.00
2023-04-02T21:23:46.848Z,100.00
2023-04-02T21:26:16.023Z,100.00
2023-04-02T21:28:44.830Z,100.00
2023-04-02T21:31:14.235Z,100.00
2023-04-02T21:33:45.602Z,100.00
2023-04-02T21:36:21.216Z,100.00
2023-04-02T21:39:03.116Z,100.00
2023-04-02T21:41:33.237Z,100.00
2023-04-02T21:44:02.675Z,100.00
2023-04-02T21:46:31.142Z,100.00
2023-04-02T21:48:59.392Z,100.00
2023-04-02T21:51:28.418Z,100.00
2023-04-02T21:53:56.390Z,100.00
2023-04-02T21:56:26.281Z,100.00
2023-04-02T21:58:54.233Z,100.00
2023-04-02T22:01:27.276Z,100.00
2023-04-02T22:03:56.958Z,100.00
2023-04-02T22:06:25.423Z,100.00
2023-04-02T22:08:54.668Z,100.00
2023-04-02T22:11:27.901Z,100.00
2023-04-02T22:13:56.283Z,100.00
2023-04-02T22:16:25.404Z,100.00
2023-04-02T22:18:54.588Z,100.00
2023-04-02T22:21:22.236Z,100.00
2023-04-02T22:23:50.405Z,100.00
2023-04-02T22:26:18.680Z,100.00
2023-04-02T22:28:46.244Z,100.00
2023-04-02T22:31:17.525Z,100.00
2023-04-02T22:33:45.870Z,100.00
2023-04-02T22:36:15.800Z,100.00
2023-04-02T22:38:44.052Z,100.00
2023-04-02T22:41:13.007Z,100.00
2023-04-02T22:43:41.218Z,100.00
2023-04-02T22:46:09.326Z,100.00
2023-04-02T22:48:39.307Z,100.00
2023-04-02T22:51:07.594Z,100.00
2023-04-02T22:53:36.282Z,100.00
2023-04-02T22:56:08.849Z,100.00
2023-04-02T22:58:37.328Z,100.00
2023-04-02T23:01:15.483Z,100.00
2023-04-02T23:03:43.393Z,100.00
2023-04-02T23:06:14.234Z,100.00
2023-04-02T23:08:41.795Z,100.00
2023-04-02T23:11:14.373Z,100.00
2023-04-02T23:13:42.441Z,100.00
2023-04-02T23:16:11.520Z,100.00
2023-04-02T23:18:47.462Z,100.00
2023-04-02T23:21:16.032Z,100.00
2023-04-02T23:23:43.843Z,100.00
2023-04-02T23:26:16.415Z,100.00
2023-04-02T23:28:43.912Z,100.00
2023-04-02T23:31:16.294Z,100.00
2023-04-02T23:33:43.837Z,100.00
2023-04-02T23:36:26.107Z,100.00
2023-04-02T23:38:54.696Z,100.00
2023-04-02T23:41:23.400Z,100.00
2023-04-02T23:43:51.242Z,100.00
2023-04-02T23:46:19.443Z,100.00
2023-04-02T23:48:47.079Z,100.00
2023-04-02T23:51:14.232Z,100.00
2023-04-02T23:53:43.054Z,100.00
2023-04-02T23:56:12.101Z,100.00
2023-04-02T23:58:40.281Z,100.00
